sensor_id;sensor_type;location;lat;lon;timestamp;P1;durP1;ratioP1;P2;durP2;ratioP2
77802;SDS011;66993;48.256;16.422;2023-02-28T00:01:48;19.1;;;9.6;;
77802;SDS011;66993;48.256;16.422;2023-02-28T00:06:49;17.7;;;10.4;;
77802;SDS011;66993;48.256;16.422;2023-02-28T00:11:50;21.0;;;9.9;;
77802;SDS011;66993;48.256;16.422;2023-02-28T00:16:52;18.5;;;10.2;;
77802;SDS011;66993;48.256;16.422;2023-02-28T00:21:53;18.7;;;9.4;;
77802;SDS011;66993;48.256;16.422;2023-02-28T00:26:55;19.1;;;10.2;;
77802;SDS011;66993;48.256;16.422;2023-02-28T00:31:55;20.0;;;10.1;;
77802;SDS011;66993;48.256;16.422;2023-02-28T00:36:57;19.9;;;10.5;;
77802;SDS011;66993;48.256;16.422;2023-02-28T00:41:58;19.1;;;10.0;;
77802;SDS011;66993;48.256;16.422;2023-02-28T00:46:59;19.5;;;10.9;;
77802;SDS011;66993;48.256;16.422;2023-02-28T00:52:00;19.8;;;10.0;;
77802;SDS011;66993;48.256;16.422;2023-02-28T00:57:01;21.9;;;12.2;;
77802;SDS011;66993;48.256;16.422;2023-02-28T01:02:03;22.1;;;10.8;;
77802;SDS011;66993;48.256;16.422;2023-02-28T01:07:04;20.0;;;10.5;;
77802;SDS011;66993;48.256;16.422;2023-02-28T01:12:05;19.6;;;10.5;;
77802;SDS011;66993;48.256;16.422;2023-02-28T01:17:07;21.1;;;10.5;;
77802;SDS011;66993;48.256;16.422;2023-02-28T01:22:07;21.0;;;11.4;;
77802;SDS011;66993;48.256;16.422;2023-02-28T01:27:09;19.4;;;10.9;;
77802;SDS011;66993;48.256;16.422;2023-02-28T01:32:10;21.2;;;10.5;;
77802;SDS011;66993;48.256;16.422;2023-02-28T01:37:11;19.5;;;10.1;;
77802;SDS011;66993;48.256;16.422;2023-02-28T01:42:12;21.3;;;11.6;;
77802;SDS011;66993;48.256;16.422;2023-02-28T01:47:14;20.6;;;10.7;;
77802;SDS011;66993;48.256;16.422;2023-02-28T01:52:15;19.0;;;10.5;;
77802;SDS011;66993;48.256;16.422;2023-02-28T01:57:17;22.2;;;11.3;;
77802;SDS011;66993;48.256;16.422;2023-02-28T02:02:17;22.2;;;11.2;;
77802;SDS011;66993;48.256;16.422;2023-02-28T02:07:18;21.2;;;11.9;;
77802;SDS011;66993;48.256;16.422;2023-02-28T02:12:22;22.6;;;11.6;;
77802;SDS011;66993;48.256;16.422;2023-02-28T02:17:23;23.1;;;11.7;;
77802;SDS011;66993;48.256;16.422;2023-02-28T02:22:27;23.1;;;11.4;;
77802;SDS011;66993;48.256;16.422;2023-02-28T02:27:25;19.8;;;10.7;;
77802;SDS011;66993;48.256;16.422;2023-02-28T02:32:28;22.0;;;11.6;;
77802;SDS011;66993;48.256;16.422;2023-02-28T02:37:28;21.0;;;11.4;;
77802;SDS011;66993;48.256;16.422;2023-02-28T02:42:27;21.6;;;10.8;;
77802;SDS011;66993;48.256;16.422;2023-02-28T02:47:29;23.6;;;10.8;;
77802;SDS011;66993;48.256;16.422;2023-02-28T02:52:31;23.6;;;11.0;;
77802;SDS011;66993;48.256;16.422;2023-02-28T02:57:32;24.2;;;12.0;;
77802;SDS011;66993;48.256;16.422;2023-02-28T03:02:32;22.2;;;11.2;;
77802;SDS011;66993;48.256;16.422;2023-02-28T03:07:33;21.8;;;11.0;;
77802;SDS011;66993;48.256;16.422;2023-02-28T03:12:40;21.6;;;11.9;;
77802;SDS011;66993;48.256;16.422;2023-02-28T03:17:40;23.2;;;11.5;;
77802;SDS011;66993;48.256;16.422;2023-02-28T03:22:41;22.9;;;11.4;;
77802;SDS011;66993;48.256;16.422;2023-02-28T03:27:39;23.0;;;12.0;;
77802;SDS011;66993;48.256;16.422;2023-02-28T03:32:40;22.8;;;11.9;;
77802;SDS011;66993;48.256;16.422;2023-02-28T03:37:40;20.8;;;10.1;;
77802;SDS011;66993;48.256;16.422;2023-02-28T03:42:42;24.4;;;12.7;;
77802;SDS011;66993;48.256;16.422;2023-02-28T03:47:44;20.9;;;11.2;;
77802;SDS011;66993;48.256;16.422;2023-02-28T03:52:44;23.8;;;12.1;;
77802;SDS011;66993;48.256;16.422;2023-02-28T03:57:50;22.0;;;11.1;;
77802;SDS011;66993;48.256;16.422;2023-02-28T04:02:46;24.8;;;11.6;;
77802;SDS011;66993;48.256;16.422;2023-02-28T04:07:47;24.0;;;12.7;;
77802;SDS011;66993;48.256;16.422;2023-02-28T04:12:48;22.2;;;12.3;;
77802;SDS011;66993;48.256;16.422;2023-02-28T04:17:49;21.2;;;11.1;;
77802;SDS011;66993;48.256;16.422;2023-02-28T04:22:51;25.6;;;12.3;;
77802;SDS011;66993;48.256;16.422;2023-02-28T04:27:52;24.2;;;12.4;;
77802;SDS011;66993;48.256;16.422;2023-02-28T04:32:53;22.6;;;11.5;;
77802;SDS011;66993;48.256;16.422;2023-02-28T04:37:55;21.2;;;12.1;;
77802;SDS011;66993;48.256;16.422;2023-02-28T04:42:56;26.1;;;12.3;;
77802;SDS011;66993;48.256;16.422;2023-02-28T04:47:57;23.3;;;12.0;;
77802;SDS011;66993;48.256;16.422;2023-02-28T04:52:58;24.0;;;12.7;;
77802;SDS011;66993;48.256;16.422;2023-02-28T04:57:59;23.2;;;12.4;;
77802;SDS011;66993;48.256;16.422;2023-02-28T05:03:00;24.6;;;12.3;;
77802;SDS011;66993;48.256;16.422;2023-02-28T05:08:02;24.0;;;12.8;;
77802;SDS011;66993;48.256;16.422;2023-02-28T05:13:03;25.3;;;12.5;;
77802;SDS011;66993;48.256;16.422;2023-02-28T05:18:04;27.4;;;13.3;;
77802;SDS011;66993;48.256;16.422;2023-02-28T05:23:05;25.5;;;11.9;;
77802;SDS011;66993;48.256;16.422;2023-02-28T05:28:07;27.7;;;12.8;;
77802;SDS011;66993;48.256;16.422;2023-02-28T05:33:09;26.9;;;12.8;;
77802;SDS011;66993;48.256;16.422;2023-02-28T05:38:09;25.5;;;12.1;;
77802;SDS011;66993;48.256;16.422;2023-02-28T05:43:10;25.6;;;12.7;;
77802;SDS011;66993;48.256;16.422;2023-02-28T05:48:11;28.8;;;13.6;;
77802;SDS011;66993;48.256;16.422;2023-02-28T05:53:13;29.6;;;14.6;;
77802;SDS011;66993;48.256;16.422;2023-02-28T05:58:14;33.1;;;15.0;;
77802;SDS011;66993;48.256;16.422;2023-02-28T06:03:15;31.3;;;13.9;;
77802;SDS011;66993;48.256;16.422;2023-02-28T06:08:16;29.8;;;13.8;;
77802;SDS011;66993;48.256;16.422;2023-02-28T06:13:17;30.9;;;14.2;;
77802;SDS011;66993;48.256;16.422;2023-02-28T06:18:19;29.0;;;14.0;;
77802;SDS011;66993;48.256;16.422;2023-02-28T06:23:20;30.8;;;14.1;;
77802;SDS011;66993;48.256;16.422;2023-02-28T06:28:21;31.9;;;15.5;;
77802;SDS011;66993;48.256;16.422;2023-02-28T06:33:22;30.6;;;14.3;;
77802;SDS011;66993;48.256;16.422;2023-02-28T06:38:23;29.0;;;13.7;;
77802;SDS011;66993;48.256;16.422;2023-02-28T06:43:25;26.7;;;13.6;;
77802;SDS011;66993;48.256;16.422;2023-02-28T06:48:26;25.2;;;13.7;;
77802;SDS011;66993;48.256;16.422;2023-02-28T06:53:27;25.8;;;13.2;;
77802;SDS011;66993;48.256;16.422;2023-02-28T06:58:28;27.6;;;14.2;;
77802;SDS011;66993;48.256;16.422;2023-02-28T07:03:29;25.5;;;13.0;;
77802;SDS011;66993;48.256;16.422;2023-02-28T07:08:30;25.0;;;14.1;;
77802;SDS011;66993;48.256;16.422;2023-02-28T07:13:31;27.7;;;14.6;;
77802;SDS011;66993;48.256;16.422;2023-02-28T07:18:33;25.9;;;12.9;;
77802;SDS011;66993;48.256;16.422;2023-02-28T07:23:34;27.7;;;13.8;;
77802;SDS011;66993;48.256;16.422;2023-02-28T07:28:35;24.9;;;12.6;;
77802;SDS011;66993;48.256;16.422;2023-02-28T07:33:37;27.5;;;13.2;;
77802;SDS011;66993;48.256;16.422;2023-02-28T07:38:37;27.4;;;14.6;;
77802;SDS011;66993;48.256;16.422;2023-02-28T07:43:38;28.2;;;14.1;;
77802;SDS011;66993;48.256;16.422;2023-02-28T07:48:41;28.3;;;13.8;;
77802;SDS011;66993;48.256;16.422;2023-02-28T07:53:41;25.4;;;13.4;;
77802;SDS011;66993;48.256;16.422;2023-02-28T07:58:42;25.6;;;13.9;;
77802;SDS011;66993;48.256;16.422;2023-02-28T08:03:43;27.3;;;14.2;;
77802;SDS011;66993;48.256;16.422;2023-02-28T08:08:45;25.4;;;13.6;;
77802;SDS011;66993;48.256;16.422;2023-02-28T08:13:45;23.7;;;13.5;;
77802;SDS011;66993;48.256;16.422;2023-02-28T08:18:47;23.8;;;12.5;;
77802;SDS011;66993;48.256;16.422;2023-02-28T08:23:48;25.4;;;12.6;;
77802;SDS011;66993;48.256;16.422;2023-02-28T08:28:49;22.9;;;12.8;;
77802;SDS011;66993;48.256;16.422;2023-02-28T08:33:50;22.3;;;12.3;;
77802;SDS011;66993;48.256;16.422;2023-02-28T08:38:52;28.0;;;13.5;;
77802;SDS011;66993;48.256;16.422;2023-02-28T08:43:53;25.1;;;14.0;;
77802;SDS011;66993;48.256;16.422;2023-02-28T08:48:54;23.2;;;13.0;;
77802;SDS011;66993;48.256;16.422;2023-02-28T08:53:55;25.6;;;14.4;;
77802;SDS011;66993;48.256;16.422;2023-02-28T08:58:56;27.8;;;16.0;;
77802;SDS011;66993;48.256;16.422;2023-02-28T09:03:57;22.9;;;13.7;;
77802;SDS011;66993;48.256;16.422;2023-02-28T09:08:59;23.0;;;13.6;;
77802;SDS011;66993;48.256;16.422;2023-02-28T09:14:00;24.0;;;13.0;;
77802;SDS011;66993;48.256;16.422;2023-02-28T09:19:01;23.1;;;13.9;;
77802;SDS011;66993;48.256;16.422;2023-02-28T09:24:02;25.3;;;13.9;;
77802;SDS011;66993;48.256;16.422;2023-02-28T09:29:03;21.6;;;11.9;;
77802;SDS011;66993;48.256;16.422;2023-02-28T09:34:04;22.0;;;12.8;;
77802;SDS011;66993;48.256;16.422;2023-02-28T09:39:06;23.5;;;12.7;;
77802;SDS011;66993;48.256;16.422;2023-02-28T09:44:07;28.6;;;16.4;;
77802;SDS011;66993;48.256;16.422;2023-02-28T09:49:10;23.2;;;13.7;;
77802;SDS011;66993;48.256;16.422;2023-02-28T09:54:12;23.4;;;12.5;;
77802;SDS011;66993;48.256;16.422;2023-02-28T09:59:13;24.2;;;12.4;;
77802;SDS011;66993;48.256;16.422;2023-02-28T10:04:14;22.2;;;12.9;;
77802;SDS011;66993;48.256;16.422;2023-02-28T10:09:15;25.2;;;14.3;;
77802;SDS011;66993;48.256;16.422;2023-02-28T10:14:15;25.6;;;13.7;;
77802;SDS011;66993;48.256;16.422;2023-02-28T10:19:16;22.9;;;13.4;;
77802;SDS011;66993;48.256;16.422;2023-02-28T10:24:20;26.9;;;15.5;;
77802;SDS011;66993;48.256;16.422;2023-02-28T10:29:18;22.9;;;13.8;;
77802;SDS011;66993;48.256;16.422;2023-02-28T10:34:19;25.4;;;13.2;;
77802;SDS011;66993;48.256;16.422;2023-02-28T10:44:22;24.9;;;14.4;;
77802;SDS011;66993;48.256;16.422;2023-02-28T10:49:24;24.2;;;14.9;;
77802;SDS011;66993;48.256;16.422;2023-02-28T10:54:27;25.5;;;15.3;;
77802;SDS011;66993;48.256;16.422;2023-02-28T10:59:27;20.3;;;11.9;;
77802;SDS011;66993;48.256;16.422;2023-02-28T11:04:33;20.4;;;12.3;;
77802;SDS011;66993;48.256;16.422;2023-02-28T11:09:29;21.5;;;12.1;;
77802;SDS011;66993;48.256;16.422;2023-02-28T11:14:30;19.8;;;10.9;;
77802;SDS011;66993;48.256;16.422;2023-02-28T11:19:39;23.4;;;14.5;;
77802;SDS011;66993;48.256;16.422;2023-02-28T11:24:33;23.8;;;13.9;;
77802;SDS011;66993;48.256;16.422;2023-02-28T11:29:34;21.7;;;12.4;;
77802;SDS011;66993;48.256;16.422;2023-02-28T11:34:34;22.2;;;13.3;;
77802;SDS011;66993;48.256;16.422;2023-02-28T11:39:36;22.5;;;13.2;;
77802;SDS011;66993;48.256;16.422;2023-02-28T11:44:42;22.3;;;14.2;;
77802;SDS011;66993;48.256;16.422;2023-02-28T11:49:41;21.2;;;12.5;;
77802;SDS011;66993;48.256;16.422;2023-02-28T11:54:44;19.9;;;11.7;;
77802;SDS011;66993;48.256;16.422;2023-02-28T11:59:45;23.2;;;15.5;;
77802;SDS011;66993;48.256;16.422;2023-02-28T12:04:45;20.4;;;12.0;;
77802;SDS011;66993;48.256;16.422;2023-02-28T12:09:46;21.4;;;12.6;;
77802;SDS011;66993;48.256;16.422;2023-02-28T12:14:50;19.2;;;11.4;;
77802;SDS011;66993;48.256;16.422;2023-02-28T12:19:48;18.8;;;11.5;;
77802;SDS011;66993;48.256;16.422;2023-02-28T12:24:51;19.9;;;12.7;;
77802;SDS011;66993;48.256;16.422;2023-02-28T12:29:49;18.9;;;11.2;;
77802;SDS011;66993;48.256;16.422;2023-02-28T12:34:49;23.8;;;13.1;;
77802;SDS011;66993;48.256;16.422;2023-02-28T12:39:51;20.0;;;12.1;;
77802;SDS011;66993;48.256;16.422;2023-02-28T12:44:52;19.9;;;11.2;;
77802;SDS011;66993;48.256;16.422;2023-02-28T12:49:54;18.1;;;11.6;;
77802;SDS011;66993;48.256;16.422;2023-02-28T12:54:55;20.4;;;13.7;;
77802;SDS011;66993;48.256;16.422;2023-02-28T12:59:56;19.8;;;12.0;;
77802;SDS011;66993;48.256;16.422;2023-02-28T13:09:58;22.1;;;13.6;;
77802;SDS011;66993;48.256;16.422;2023-02-28T13:15:02;18.2;;;11.3;;
77802;SDS011;66993;48.256;16.422;2023-02-28T13:20:00;20.6;;;11.2;;
77802;SDS011;66993;48.256;16.422;2023-02-28T13:25:01;17.9;;;11.6;;
77802;SDS011;66993;48.256;16.422;2023-02-28T13:35:13;16.6;;;9.8;;
77802;SDS011;66993;48.256;16.422;2023-02-28T13:50:20;19.3;;;10.9;;
77802;SDS011;66993;48.256;16.422;2023-02-28T13:55:14;17.4;;;9.9;;
77802;SDS011;66993;48.256;16.422;2023-02-28T14:00:16;16.5;;;9.4;;
77802;SDS011;66993;48.256;16.422;2023-02-28T14:05:13;18.0;;;10.7;;
77802;SDS011;66993;48.256;16.422;2023-02-28T14:10:21;15.3;;;9.4;;
77802;SDS011;66993;48.256;16.422;2023-02-28T14:20:15;16.7;;;10.2;;
77802;SDS011;66993;48.256;16.422;2023-02-28T14:25:18;16.8;;;10.3;;
77802;SDS011;66993;48.256;16.422;2023-02-28T14:35:22;16.8;;;10.2;;
77802;SDS011;66993;48.256;16.422;2023-02-28T14:40:20;15.1;;;9.8;;
77802;SDS011;66993;48.256;16.422;2023-02-28T14:45:21;16.2;;;10.0;;
77802;SDS011;66993;48.256;16.422;2023-02-28T14:50:22;15.2;;;9.2;;
77802;SDS011;66993;48.256;16.422;2023-02-28T14:55:24;14.9;;;9.7;;
77802;SDS011;66993;48.256;16.422;2023-02-28T15:00:25;14.0;;;9.1;;
77802;SDS011;66993;48.256;16.422;2023-02-28T15:05:26;14.0;;;9.4;;
77802;SDS011;66993;48.256;16.422;2023-02-28T15:10:27;16.1;;;10.1;;
77802;SDS011;66993;48.256;16.422;2023-02-28T15:15:32;17.4;;;11.1;;
77802;SDS011;66993;48.256;16.422;2023-02-28T15:20:29;17.0;;;10.6;;
77802;SDS011;66993;48.256;16.422;2023-02-28T15:25:30;16.6;;;9.7;;
77802;SDS011;66993;48.256;16.422;2023-02-28T15:30:32;16.7;;;11.1;;
77802;SDS011;66993;48.256;16.422;2023-02-28T15:35:33;16.6;;;10.5;;
77802;SDS011;66993;48.256;16.422;2023-02-28T15:40:36;17.9;;;10.9;;
77802;SDS011;66993;48.256;16.422;2023-02-28T15:45:37;18.3;;;11.5;;
77802;SDS011;66993;48.256;16.422;2023-02-28T15:50:37;16.9;;;9.6;;
77802;SDS011;66993;48.256;16.422;2023-02-28T15:55:38;18.3;;;11.2;;
77802;SDS011;66993;48.256;16.422;2023-02-28T16:00:39;17.8;;;10.5;;
77802;SDS011;66993;48.256;16.422;2023-02-28T16:05:41;17.3;;;10.3;;
77802;SDS011;66993;48.256;16.422;2023-02-28T16:10:42;17.4;;;10.2;;
77802;SDS011;66993;48.256;16.422;2023-02-28T16:15:44;16.8;;;9.5;;
77802;SDS011;66993;48.256;16.422;2023-02-28T16:20:44;15.7;;;10.6;;
77802;SDS011;66993;48.256;16.422;2023-02-28T16:25:46;16.9;;;10.0;;
77802;SDS011;66993;48.256;16.422;2023-02-28T16:30:47;16.9;;;9.8;;
77802;SDS011;66993;48.256;16.422;2023-02-28T16:35:49;18.4;;;10.4;;
77802;SDS011;66993;48.256;16.422;2023-02-28T16:40:50;19.4;;;11.1;;
77802;SDS011;66993;48.256;16.422;2023-02-28T16:45:52;19.1;;;11.5;;
77802;SDS011;66993;48.256;16.422;2023-02-28T16:50:52;19.3;;;11.3;;
77802;SDS011;66993;48.256;16.422;2023-02-28T16:55:53;20.4;;;11.3;;
77802;SDS011;66993;48.256;16.422;2023-02-28T17:00:54;21.9;;;13.1;;
77802;SDS011;66993;48.256;16.422;2023-02-28T17:05:56;23.4;;;12.4;;
77802;SDS011;66993;48.256;16.422;2023-02-28T17:10:57;20.9;;;11.9;;
77802;SDS011;66993;48.256;16.422;2023-02-28T17:15:58;19.4;;;11.6;;
77802;SDS011;66993;48.256;16.422;2023-02-28T17:21:00;22.6;;;12.7;;
77802;SDS011;66993;48.256;16.422;2023-02-28T17:26:02;29.6;;;18.2;;
77802;SDS011;66993;48.256;16.422;2023-02-28T17:31:02;38.1;;;21.8;;
77802;SDS011;66993;48.256;16.422;2023-02-28T17:36:05;57.4;;;28.7;;
77802;SDS011;66993;48.256;16.422;2023-02-28T17:41:05;21.7;;;12.3;;
77802;SDS011;66993;48.256;16.422;2023-02-28T17:46:08;26.9;;;13.0;;
77802;SDS011;66993;48.256;16.422;2023-02-28T17:51:08;34.2;;;17.5;;
77802;SDS011;66993;48.256;16.422;2023-02-28T17:56:11;33.3;;;15.3;;
77802;SDS011;66993;48.256;16.422;2023-02-28T18:01:10;18.3;;;11.4;;
77802;SDS011;66993;48.256;16.422;2023-02-28T18:06:13;17.4;;;10.1;;
77802;SDS011;66993;48.256;16.422;2023-02-28T18:11:13;21.1;;;10.9;;
77802;SDS011;66993;48.256;16.422;2023-02-28T18:16:14;23.0;;;13.5;;
77802;SDS011;66993;48.256;16.422;2023-02-28T18:21:15;21.3;;;11.1;;
77802;SDS011;66993;48.256;16.422;2023-02-28T18:26:17;24.0;;;14.7;;
77802;SDS011;66993;48.256;16.422;2023-02-28T18:31:18;21.5;;;12.9;;
77802;SDS011;66993;48.256;16.422;2023-02-28T18:36:20;22.3;;;12.2;;
77802;SDS011;66993;48.256;16.422;2023-02-28T18:41:20;24.9;;;13.4;;
77802;SDS011;66993;48.256;16.422;2023-02-28T18:46:21;28.9;;;14.3;;
77802;SDS011;66993;48.256;16.422;2023-02-28T18:51:23;31.2;;;15.0;;
77802;SDS011;66993;48.256;16.422;2023-02-28T18:56:24;29.7;;;13.4;;
77802;SDS011;66993;48.256;16.422;2023-02-28T19:01:26;29.3;;;13.7;;
77802;SDS011;66993;48.256;16.422;2023-02-28T19:06:27;29.9;;;15.5;;
77802;SDS011;66993;48.256;16.422;2023-02-28T19:11:28;38.6;;;17.7;;
77802;SDS011;66993;48.256;16.422;2023-02-28T19:16:29;36.1;;;18.9;;
77802;SDS011;66993;48.256;16.422;2023-02-28T19:21:30;35.1;;;16.9;;
77802;SDS011;66993;48.256;16.422;2023-02-28T19:26:32;33.2;;;16.1;;
77802;SDS011;66993;48.256;16.422;2023-02-28T19:31:33;33.4;;;16.6;;
77802;SDS011;66993;48.256;16.422;2023-02-28T19:36:34;32.3;;;15.7;;
77802;SDS011;66993;48.256;16.422;2023-02-28T19:41:35;35.5;;;16.7;;
77802;SDS011;66993;48.256;16.422;2023-02-28T19:46:37;30.3;;;15.5;;
77802;SDS011;66993;48.256;16.422;2023-02-28T19:51:38;31.3;;;15.2;;
77802;SDS011;66993;48.256;16.422;2023-02-28T19:56:40;32.1;;;16.3;;
77802;SDS011;66993;48.256;16.422;2023-02-28T20:01:41;32.8;;;15.8;;
77802;SDS011;66993;48.256;16.422;2023-02-28T20:06:42;35.8;;;16.7;;
77802;SDS011;66993;48.256;16.422;2023-02-28T20:11:43;33.4;;;15.3;;
77802;SDS011;66993;48.256;16.422;2023-02-28T20:16:44;33.1;;;15.4;;
77802;SDS011;66993;48.256;16.422;2023-02-28T20:21:45;31.5;;;15.5;;
77802;SDS011;66993;48.256;16.422;2023-02-28T20:26:47;31.0;;;14.7;;
77802;SDS011;66993;48.256;16.422;2023-02-28T20:31:48;30.0;;;15.6;;
77802;SDS011;66993;48.256;16.422;2023-02-28T20:36:50;32.7;;;16.2;;
77802;SDS011;66993;48.256;16.422;2023-02-28T20:41:51;37.6;;;16.6;;
77802;SDS011;66993;48.256;16.422;2023-02-28T20:46:52;36.1;;;16.8;;
77802;SDS011;66993;48.256;16.422;2023-02-28T20:51:53;34.6;;;15.8;;
77802;SDS011;66993;48.256;16.422;2023-02-28T20:56:54;36.2;;;17.2;;
77802;SDS011;66993;48.256;16.422;2023-02-28T21:01:56;33.1;;;15.1;;
77802;SDS011;66993;48.256;16.422;2023-02-28T21:06:57;31.9;;;15.5;;
77802;SDS011;66993;48.256;16.422;2023-02-28T21:11:58;35.1;;;16.3;;
77802;SDS011;66993;48.256;16.422;2023-02-28T21:16:59;31.1;;;15.8;;
77802;SDS011;66993;48.256;16.422;2023-02-28T21:22:01;35.3;;;17.6;;
77802;SDS011;66993;48.256;16.422;2023-02-28T21:27:02;34.9;;;15.7;;
77802;SDS011;66993;48.256;16.422;2023-02-28T21:32:03;34.6;;;16.6;;
77802;SDS011;66993;48.256;16.422;2023-02-28T21:37:05;38.2;;;18.8;;
77802;SDS011;66993;48.256;16.422;2023-02-28T21:42:06;39.4;;;17.1;;
77802;SDS011;66993;48.256;16.422;2023-02-28T21:47:07;36.5;;;17.0;;
77802;SDS011;66993;48.256;16.422;2023-02-28T21:52:08;34.1;;;16.4;;
77802;SDS011;66993;48.256;16.422;2023-02-28T21:57:09;35.2;;;16.8;;
77802;SDS011;66993;48.256;16.422;2023-02-28T22:02:12;38.7;;;17.8;;
77802;SDS011;66993;48.256;16.422;2023-02-28T22:07:12;41.8;;;18.0;;
77802;SDS011;66993;48.256;16.422;2023-02-28T22:12:13;41.4;;;20.0;;
77802;SDS011;66993;48.256;16.422;2023-02-28T22:17:14;41.8;;;18.3;;
77802;SDS011;66993;48.256;16.422;2023-02-28T22:22:16;41.5;;;19.0;;
77802;SDS011;66993;48.256;16.422;2023-02-28T22:27:17;41.4;;;19.8;;
77802;SDS011;66993;48.256;16.422;2023-02-28T22:32:18;37.6;;;17.5;;
77802;SDS011;66993;48.256;16.422;2023-02-28T22:37:20;43.0;;;20.7;;
77802;SDS011;66993;48.256;16.422;2023-02-28T22:42:21;43.8;;;20.6;;
77802;SDS011;66993;48.256;16.422;2023-02-28T22:47:22;38.0;;;18.9;;
77802;SDS011;66993;48.256;16.422;2023-02-28T22:52:23;41.2;;;19.9;;
77802;SDS011;66993;48.256;16.422;2023-02-28T22:57:24;43.1;;;20.6;;
77802;SDS011;66993;48.256;16.422;2023-02-28T23:02:26;47.1;;;21.1;;
77802;SDS011;66993;48.256;16.422;2023-02-28T23:07:27;48.0;;;19.7;;
77802;SDS011;66993;48.256;16.422;2023-02-28T23:12:28;48.3;;;21.3;;
77802;SDS011;66993;48.256;16.422;2023-02-28T23:17:29;43.4;;;20.1;;
77802;SDS011;66993;48.256;16.422;2023-02-28T23:22:30;41.5;;;19.8;;
77802;SDS011;66993;48.256;16.422;2023-02-28T23:27:32;47.2;;;21.6;;
77802;SDS011;66993;48.256;16.422;2023-02-28T23:32:33;44.9;;;21.3;;
77802;SDS011;66993;48.256;16.422;2023-02-28T23:37:35;46.9;;;21.7;;
77802;SDS011;66993;48.256;16.422;2023-02-28T23:42:35;45.2;;;22.2;;
77802;SDS011;66993;48.256;16.422;2023-02-28T23:47:37;40.6;;;18.7;;
77802;SDS011;66993;48.256;16.422;2023-02-28T23:52:38;49.1;;;22.0;;
77802;SDS011;66993;48.256;16.422;2023-02-28T23:57:39;45.7;;;20.9;;
